createdAt,value
2019-02-17T00:00:53.992Z,8.60
2019-02-17T00:03:57.442Z,8.60
2019-02-17T00:07:00.409Z,8.70
2019-02-17T00:10:04.512Z,8.70
2019-02-17T00:13:07.557Z,8.60
2019-02-17T00:16:10.517Z,8.60
2019-02-17T00:19:13.848Z,8.50
2019-02-17T00:22:16.821Z,8.40
2019-02-17T00:25:20.514Z,8.50
2019-02-17T00:28:23.612Z,8.50
2019-02-17T00:31:26.949Z,8.60
2019-02-17T00:34:30.988Z,8.60
2019-02-17T00:37:34.043Z,8.60
2019-02-17T00:40:37.020Z,8.50
2019-02-17T00:43:39.960Z,8.40
2019-02-17T00:46:42.922Z,8.10
2019-02-17T00:49:46.273Z,8.10
2019-02-17T00:52:49.602Z,8.40
2019-02-17T00:55:53.283Z,8.60
2019-02-17T00:58:56.247Z,8.70
2019-02-17T01:01:59.991Z,8.60
2019-02-17T01:05:03.119Z,8.40
2019-02-17T01:08:06.380Z,8.00
2019-02-17T01:11:10.429Z,7.90
2019-02-17T01:14:13.932Z,7.90
2019-02-17T01:17:16.883Z,8.20
2019-02-17T01:20:19.824Z,8.40
2019-02-17T01:23:23.214Z,8.40
2019-02-17T01:26:26.528Z,8.40
2019-02-17T01:29:29.895Z,8.50
2019-02-17T01:32:33.218Z,8.70
2019-02-17T01:35:36.536Z,8.70
2019-02-17T01:38:39.873Z,8.40
2019-02-17T01:41:43.951Z,8.40
2019-02-17T01:44:46.967Z,8.40
2019-02-17T01:47:50.348Z,8.30
2019-02-17T01:50:53.692Z,8.30
2019-02-17T01:53:56.987Z,8.50
2019-02-17T01:57:00.321Z,8.20
2019-02-17T02:00:04.433Z,8.50
2019-02-17T02:03:09.668Z,8.70
2019-02-17T02:06:12.652Z,8.60
2019-02-17T02:09:15.600Z,8.40
2019-02-17T02:12:18.668Z,8.20
2019-02-17T02:15:21.630Z,8.20
2019-02-17T02:18:24.571Z,8.30
2019-02-17T02:21:27.576Z,8.30
2019-02-17T02:24:30.537Z,8.30
2019-02-17T02:27:33.820Z,8.00
2019-02-17T02:30:36.778Z,8.00
2019-02-17T02:33:39.729Z,8.00
2019-02-17T02:36:43.081Z,7.90
2019-02-17T02:39:46.020Z,7.90
2019-02-17T02:42:49.740Z,8.00
2019-02-17T02:45:53.110Z,7.90
2019-02-17T02:48:56.321Z,8.00
2019-02-17T02:51:59.665Z,8.10
2019-02-17T02:55:02.713Z,8.30
2019-02-17T02:58:05.766Z,8.20
2019-02-17T03:01:10.437Z,8.10
2019-02-17T03:04:13.719Z,8.10
2019-02-17T03:07:19.675Z,8.10
2019-02-17T03:10:22.608Z,8.00
2019-02-17T03:13:25.958Z,7.90
2019-02-17T03:16:29.190Z,7.80
2019-02-17T03:19:32.278Z,7.90
2019-02-17T03:22:35.251Z,8.00
2019-02-17T03:25:38.529Z,7.90
2019-02-17T03:28:42.219Z,7.80
2019-02-17T03:31:45.474Z,7.90
2019-02-17T03:34:48.456Z,7.80
2019-02-17T03:37:51.855Z,7.70
2019-02-17T03:40:54.796Z,7.60
2019-02-17T03:43:58.131Z,7.70
2019-02-17T03:47:01.393Z,7.70
2019-02-17T03:50:05.157Z,7.50
2019-02-17T03:53:08.088Z,7.50
2019-02-17T03:56:11.844Z,7.60
2019-02-17T03:59:15.911Z,7.70
2019-02-17T04:02:18.845Z,7.60
2019-02-17T04:05:21.801Z,7.30
2019-02-17T04:08:25.368Z,7.40
2019-02-17T04:11:28.667Z,7.40
2019-02-17T04:14:31.631Z,7.00
2019-02-17T04:17:34.596Z,7.10
2019-02-17T04:20:37.909Z,6.80
2019-02-17T04:23:40.843Z,6.70
2019-02-17T04:26:43.827Z,6.80
2019-02-17T04:29:46.760Z,6.60
2019-02-17T04:32:50.084Z,6.90
2019-02-17T04:35:53.633Z,6.80
2019-02-17T04:38:57.635Z,6.90
2019-02-17T04:42:00.597Z,7.10
2019-02-17T04:45:04.213Z,7.10
2019-02-17T04:48:09.124Z,7.30
2019-02-17T04:51:12.086Z,7.30
2019-02-17T04:54:15.361Z,7.30
2019-02-17T04:57:18.327Z,7.50
2019-02-17T05:00:21.289Z,7.50
2019-02-17T05:03:24.231Z,7.30
2019-02-17T05:06:27.193Z,7.20
2019-02-17T05:09:30.124Z,7.00
2019-02-17T05:12:33.080Z,7.10
2019-02-17T05:15:37.183Z,7.20
2019-02-17T05:18:40.137Z,7.20
2019-02-17T05:21:43.497Z,7.20
2019-02-17T05:24:46.831Z,7.20
2019-02-17T05:27:49.791Z,7.20
2019-02-17T05:30:53.544Z,7.10
2019-02-17T05:33:57.350Z,6.90
2019-02-17T05:37:00.314Z,6.90
2019-02-17T05:40:03.739Z,6.60
2019-02-17T05:43:07.117Z,6.60
2019-02-17T05:46:10.079Z,6.60
2019-02-17T05:49:13.039Z,6.70
2019-02-17T05:52:16.371Z,6.60
2019-02-17T05:55:19.306Z,6.60
2019-02-17T05:58:22.356Z,6.70
2019-02-17T06:01:25.670Z,6.70
2019-02-17T06:04:29.017Z,6.80
2019-02-17T06:07:32.645Z,6.80
2019-02-17T06:10:35.680Z,6.90
2019-02-17T06:13:38.639Z,6.70
2019-02-17T06:16:41.602Z,6.80
2019-02-17T06:19:44.573Z,6.70
2019-02-17T06:22:48.237Z,6.70
2019-02-17T06:25:51.509Z,6.80
2019-02-17T06:28:54.882Z,6.90
2019-02-17T06:31:57.809Z,6.90
2019-02-17T06:35:01.165Z,7.00
2019-02-17T06:38:04.428Z,6.90
2019-02-17T06:41:07.372Z,6.80
2019-02-17T06:44:10.338Z,6.90
2019-02-17T06:47:20.496Z,6.90
2019-02-17T06:50:23.445Z,7.00
2019-02-17T06:53:27.153Z,6.90
2019-02-17T06:56:44.274Z,6.60
2019-02-17T06:59:48.333Z,6.60
2019-02-17T07:02:51.674Z,6.70
2019-02-17T07:06:14.566Z,6.70
2019-02-17T07:09:17.852Z,6.60
2019-02-17T07:12:20.795Z,6.60
2019-02-17T07:15:23.744Z,6.80
2019-02-17T07:18:27.607Z,6.70
2019-02-17T07:21:31.245Z,6.80
2019-02-17T07:24:34.563Z,6.90
2019-02-17T07:27:37.527Z,6.90
2019-02-17T07:30:40.492Z,6.80
2019-02-17T07:33:43.428Z,6.90
2019-02-17T07:36:46.725Z,7.10
2019-02-17T07:39:50.105Z,7.10
2019-02-17T07:42:53.405Z,7.20
2019-02-17T07:45:57.123Z,7.10
2019-02-17T07:49:00.089Z,7.20
2019-02-17T07:52:03.049Z,7.20
2019-02-17T07:55:07.507Z,7.20
2019-02-17T07:58:10.784Z,7.20
2019-02-17T08:01:13.740Z,7.20
2019-02-17T08:04:16.676Z,7.30
2019-02-17T08:07:19.939Z,7.40
2019-02-17T08:10:23.293Z,7.50
2019-02-17T08:13:26.249Z,7.30
2019-02-17T08:16:29.229Z,7.20
2019-02-17T08:19:33.021Z,7.50
2019-02-17T08:22:35.991Z,7.60
2019-02-17T08:25:38.934Z,8.00
2019-02-17T08:28:42.655Z,8.20
2019-02-17T08:31:55.505Z,8.60
2019-02-17T08:34:53.267Z,8.90
2019-02-17T08:37:56.704Z,9.10
2019-02-17T08:41:00.839Z,9.20
2019-02-17T08:44:03.948Z,9.20
2019-02-17T08:47:07.240Z,9.50
2019-02-17T08:50:10.565Z,9.60
2019-02-17T08:53:13.878Z,9.60
2019-02-17T08:56:18.650Z,9.70
2019-02-17T08:59:22.789Z,9.80
2019-02-17T09:02:26.518Z,9.80
2019-02-17T09:05:29.481Z,10.00
2019-02-17T09:08:32.816Z,10.00
2019-02-17T09:11:35.756Z,10.10
2019-02-17T09:14:39.412Z,10.10
2019-02-17T09:17:42.368Z,10.20
2019-02-17T09:20:45.709Z,10.30
2019-02-17T09:26:52.480Z,10.50
2019-02-17T09:29:55.469Z,10.50
2019-02-17T09:32:58.676Z,10.40
2019-02-17T09:36:02.019Z,10.50
2019-02-17T09:39:08.453Z,10.70
2019-02-17T09:42:11.406Z,11.00
2019-02-17T09:45:15.892Z,11.00
2019-02-17T09:48:18.825Z,11.10
2019-02-17T09:51:22.906Z,11.20
2019-02-17T09:54:26.665Z,11.40
2019-02-17T09:57:29.644Z,11.80
2019-02-17T10:00:32.597Z,11.70
2019-02-17T10:03:35.542Z,11.70
2019-02-17T10:06:38.891Z,11.70
2019-02-17T10:09:42.109Z,11.80
2019-02-17T10:12:45.915Z,12.00
2019-02-17T10:15:48.861Z,12.10
2019-02-17T10:18:52.809Z,12.10
2019-02-17T10:21:56.208Z,12.20
2019-02-17T10:24:59.495Z,12.30
2019-02-17T10:28:02.448Z,12.40
2019-02-17T10:31:06.211Z,12.40
2019-02-17T10:34:09.158Z,12.60
2019-02-17T10:37:13.226Z,12.60
2019-02-17T10:40:16.323Z,12.60
2019-02-17T10:43:20.035Z,12.70
2019-02-17T10:46:23.369Z,12.80
2019-02-17T10:49:27.099Z,12.90
2019-02-17T10:52:33.516Z,12.90
2019-02-17T11:01:39.376Z,13.10
2019-02-17T11:04:43.229Z,13.10
2019-02-17T11:07:46.467Z,13.30
2019-02-17T11:10:50.175Z,13.50
2019-02-17T11:13:53.833Z,13.50
2019-02-17T11:16:57.189Z,13.70
2019-02-17T11:20:00.899Z,13.70
2019-02-17T11:23:04.326Z,13.80
2019-02-17T11:26:07.373Z,13.90
2019-02-17T11:29:10.344Z,14.10
2019-02-17T11:32:13.643Z,14.10
2019-02-17T11:35:16.921Z,14.30
2019-02-17T11:38:21.093Z,14.60
2019-02-17T11:41:24.054Z,14.70
2019-02-17T11:44:27.838Z,15.20
2019-02-17T11:47:31.468Z,17.30
2019-02-17T11:50:34.444Z,17.80
2019-02-17T11:53:37.447Z,18.30
2019-02-17T11:56:42.382Z,18.80
2019-02-17T11:59:45.809Z,19.30
2019-02-17T12:02:48.771Z,19.40
2019-02-17T12:05:51.762Z,19.30
2019-02-17T12:08:54.724Z,19.20
2019-02-17T12:11:57.673Z,19.10
2019-02-17T12:15:00.644Z,19.50
2019-02-17T12:18:03.946Z,20.00
2019-02-17T12:21:12.869Z,19.80
2019-02-17T12:24:22.282Z,19.40
2019-02-17T12:27:33.114Z,19.30
2019-02-17T12:30:37.120Z,18.70
2019-02-17T12:33:40.073Z,17.70
2019-02-17T12:36:44.804Z,17.50
2019-02-17T12:39:47.768Z,17.00
2019-02-17T12:42:51.237Z,16.70
2019-02-17T12:45:55.384Z,16.50
2019-02-17T12:48:58.356Z,16.30
2019-02-17T12:52:02.094Z,17.00
2019-02-17T12:55:05.482Z,17.30
2019-02-17T12:58:08.880Z,16.60
2019-02-17T13:01:13.549Z,16.40
2019-02-17T13:04:16.588Z,16.00
2019-02-17T13:07:19.931Z,16.00
2019-02-17T13:10:22.874Z,16.00
2019-02-17T13:13:25.833Z,16.10
2019-02-17T13:16:29.468Z,16.60
2019-02-17T13:19:33.174Z,16.80
2019-02-17T13:22:36.977Z,16.60
2019-02-17T13:25:39.955Z,16.40
2019-02-17T13:28:42.962Z,16.40
2019-02-17T13:31:46.252Z,16.40
2019-02-17T13:34:49.245Z,16.30
2019-02-17T13:37:52.591Z,16.30
2019-02-17T13:40:55.537Z,16.40
2019-02-17T13:43:58.493Z,16.50
2019-02-17T13:47:02.120Z,16.40
2019-02-17T13:50:06.957Z,16.20
2019-02-17T13:53:11.935Z,16.10
2019-02-17T13:56:15.605Z,16.20
2019-02-17T13:59:18.571Z,16.10
2019-02-17T14:02:23.018Z,16.00
2019-02-17T14:05:25.988Z,16.00
2019-02-17T14:08:31.264Z,16.00
2019-02-17T14:11:33.890Z,15.90
2019-02-17T14:14:38.789Z,15.90
2019-02-17T14:17:41.995Z,15.90
2019-02-17T14:20:45.372Z,15.80
2019-02-17T14:23:48.640Z,15.70
2019-02-17T14:26:51.912Z,15.80
2019-02-17T14:29:54.885Z,15.70
2019-02-17T14:32:57.837Z,15.50
2019-02-17T14:36:01.066Z,15.40
2019-02-17T14:39:05.968Z,15.40
2019-02-17T14:42:10.870Z,15.40
2019-02-17T14:45:14.071Z,15.20
2019-02-17T14:48:17.464Z,15.20
2019-02-17T14:51:20.431Z,15.40
2019-02-17T14:54:23.728Z,15.30
2019-02-17T14:57:26.719Z,15.20
2019-02-17T15:00:29.684Z,15.20
2019-02-17T15:06:42.271Z,15.10
2019-02-17T15:09:45.240Z,15.10
2019-02-17T15:12:48.228Z,15.00
2019-02-17T15:15:51.193Z,15.00
2019-02-17T15:18:54.941Z,14.90
2019-02-17T15:21:57.935Z,14.80
2019-02-17T15:25:01.443Z,14.80
2019-02-17T15:28:04.818Z,14.80
2019-02-17T15:31:07.820Z,14.90
2019-02-17T15:34:18.386Z,14.80
2019-02-17T15:37:15.664Z,14.60
2019-02-17T15:40:19.614Z,14.40
2019-02-17T15:43:22.587Z,14.20
2019-02-17T15:46:25.527Z,14.20
2019-02-17T15:49:28.870Z,14.00
2019-02-17T15:52:31.845Z,13.80
2019-02-17T15:55:36.158Z,13.60
2019-02-17T15:58:39.502Z,13.40
2019-02-17T16:01:42.441Z,13.20
2019-02-17T16:04:46.105Z,13.00
2019-02-17T16:07:49.433Z,12.80
2019-02-17T16:10:52.688Z,12.70
2019-02-17T16:13:55.976Z,12.50
2019-02-17T16:16:59.699Z,12.50
2019-02-17T16:20:02.926Z,12.40
2019-02-17T16:23:05.876Z,12.30
2019-02-17T16:26:09.220Z,12.30
2019-02-17T16:29:12.224Z,12.20
2019-02-17T16:32:15.953Z,12.20
2019-02-17T16:35:19.248Z,12.00
2019-02-17T16:38:22.631Z,12.00
2019-02-17T16:41:26.186Z,12.00
2019-02-17T16:44:29.593Z,11.80
2019-02-17T16:47:32.613Z,11.70
2019-02-17T16:50:35.579Z,11.70
2019-02-17T16:53:40.157Z,11.60
2019-02-17T16:56:43.106Z,11.50
2019-02-17T16:59:46.073Z,11.50
2019-02-17T17:02:49.116Z,11.50
2019-02-17T17:05:52.845Z,11.50
2019-02-17T17:08:56.353Z,11.30
2019-02-17T17:12:00.084Z,11.20
2019-02-17T17:15:03.281Z,11.40
2019-02-17T17:18:07.800Z,11.50
2019-02-17T17:21:10.752Z,11.30
2019-02-17T17:24:14.031Z,11.40
2019-02-17T17:27:17.538Z,11.10
2019-02-17T17:30:20.522Z,11.20
2019-02-17T17:33:23.460Z,11.20
2019-02-17T17:36:27.074Z,11.30
2019-02-17T17:39:30.911Z,11.30
2019-02-17T17:42:34.299Z,11.20
2019-02-17T17:45:37.943Z,11.30
2019-02-17T17:48:42.400Z,11.40
2019-02-17T17:51:46.142Z,11.40
2019-02-17T17:54:50.174Z,11.60
2019-02-17T17:57:53.924Z,11.60
2019-02-17T18:00:57.990Z,11.50
2019-02-17T18:04:01.600Z,11.90
2019-02-17T18:07:04.556Z,12.00
2019-02-17T18:10:10.713Z,12.00
2019-02-17T18:13:14.684Z,12.10
2019-02-17T18:16:17.971Z,12.30
2019-02-17T18:19:21.037Z,12.30
2019-02-17T18:22:23.983Z,12.40
2019-02-17T18:25:26.941Z,12.40
2019-02-17T18:28:30.287Z,12.50
2019-02-17T18:31:33.384Z,12.40
2019-02-17T18:34:36.347Z,12.50
2019-02-17T18:37:39.696Z,12.60
2019-02-17T18:40:44.920Z,12.50
2019-02-17T18:43:48.336Z,12.50
2019-02-17T18:46:51.301Z,12.50
2019-02-17T18:49:54.262Z,12.50
2019-02-17T18:52:58.016Z,12.50
2019-02-17T18:56:01.401Z,12.60
2019-02-17T18:59:04.445Z,12.60
2019-02-17T19:02:07.512Z,12.50
2019-02-17T19:05:10.679Z,12.40
2019-02-17T19:08:13.643Z,12.40
2019-02-17T19:11:17.382Z,12.30
2019-02-17T19:14:20.680Z,12.40
2019-02-17T19:17:23.966Z,12.40
2019-02-17T19:20:26.973Z,12.20
2019-02-17T19:23:30.238Z,12.30
2019-02-17T19:26:33.600Z,12.20
2019-02-17T19:29:37.102Z,12.10
2019-02-17T19:32:40.130Z,12.10
2019-02-17T19:35:43.094Z,12.10
2019-02-17T19:38:46.326Z,12.20
2019-02-17T19:41:50.319Z,12.20
2019-02-17T19:44:53.268Z,12.30
2019-02-17T19:47:56.229Z,12.20
2019-02-17T19:50:59.190Z,12.10
2019-02-17T19:54:02.143Z,12.00
2019-02-17T19:57:05.477Z,11.90
2019-02-17T20:00:11.024Z,12.10
2019-02-17T20:03:32.864Z,12.10
2019-02-17T20:06:36.575Z,12.20
2019-02-17T20:09:39.930Z,12.20
2019-02-17T20:12:43.329Z,12.10
2019-02-17T20:15:46.273Z,12.10
2019-02-17T20:18:49.246Z,12.10
2019-02-17T20:21:52.204Z,12.20
2019-02-17T20:24:55.276Z,12.20
2019-02-17T20:27:58.239Z,12.10
2019-02-17T20:31:01.289Z,12.10
2019-02-17T20:34:04.599Z,12.00
2019-02-17T20:37:07.607Z,11.90
2019-02-17T20:40:10.599Z,11.90
2019-02-17T20:43:13.565Z,11.90
2019-02-17T20:46:16.525Z,11.90
2019-02-17T20:49:19.881Z,11.80
2019-02-17T20:52:22.850Z,11.80
2019-02-17T20:55:26.140Z,11.90
2019-02-17T20:58:29.116Z,11.80
2019-02-17T21:01:32.445Z,11.80
2019-02-17T21:04:35.544Z,11.80
2019-02-17T21:07:38.931Z,11.90
2019-02-17T21:10:41.876Z,11.90
2019-02-17T21:13:45.170Z,11.80
2019-02-17T21:16:48.144Z,11.90
2019-02-17T21:19:52.581Z,11.90
2019-02-17T21:22:56.791Z,12.00
2019-02-17T21:25:59.723Z,12.00
2019-02-17T21:29:03.614Z,11.90
2019-02-17T21:32:06.662Z,12.00
2019-02-17T21:35:11.136Z,11.90
2019-02-17T21:38:14.469Z,11.90
2019-02-17T21:41:17.831Z,11.90
2019-02-17T21:44:21.475Z,11.90
2019-02-17T21:47:24.456Z,11.80
2019-02-17T21:50:27.514Z,11.70
2019-02-17T21:53:30.453Z,11.50
2019-02-17T21:56:34.092Z,11.50
2019-02-17T21:59:37.360Z,11.60
2019-02-17T22:02:41.128Z,11.50
2019-02-17T22:05:44.997Z,11.40
2019-02-17T22:08:47.964Z,11.50
2019-02-17T22:11:51.480Z,11.20
2019-02-17T22:14:55.523Z,11.00
2019-02-17T22:17:59.008Z,11.10
2019-02-17T22:21:02.306Z,11.00
2019-02-17T22:24:05.904Z,11.10
2019-02-17T22:27:08.998Z,11.10
2019-02-17T22:30:12.110Z,11.10
2019-02-17T22:33:15.173Z,11.00
2019-02-17T22:36:18.247Z,10.70
2019-02-17T22:39:21.669Z,10.90
2019-02-17T22:42:25.177Z,10.80
2019-02-17T22:45:29.387Z,10.70
2019-02-17T22:48:32.667Z,10.70
2019-02-17T22:51:35.980Z,10.80
2019-02-17T22:54:39.034Z,10.80
2019-02-17T22:57:42.457Z,10.60
2019-02-17T23:01:00.715Z,10.60
2019-02-17T23:04:06.047Z,10.60
2019-02-17T23:07:09.191Z,10.60
2019-02-17T23:10:12.435Z,10.60
2019-02-17T23:13:15.497Z,10.50
2019-02-17T23:16:18.532Z,10.40
2019-02-17T23:19:21.495Z,10.30
2019-02-17T23:22:24.833Z,10.20
2019-02-17T23:25:28.138Z,10.30
2019-02-17T23:28:31.504Z,10.20
2019-02-17T23:31:34.555Z,10.10
2019-02-17T23:34:37.513Z,10.20
2019-02-17T23:37:40.790Z,10.20
2019-02-17T23:40:43.749Z,10.10
2019-02-17T23:43:46.723Z,10.10
2019-02-17T23:46:50.389Z,10.00
2019-02-17T23:49:53.666Z,10.00
2019-02-17T23:52:56.621Z,10.10
2019-02-17T23:55:59.955Z,10.00
2019-02-17T23:59:03.211Z,10.00
